Terminal Aerodrome Forecast
Issued by NWS Pocatello, ID

Home | Current Version | Previous Version | Text Only | Print | Product List | Glossary On
Versions: 1 2 3 4 5 6 7 8 9 10 11 12 13 14 15
000
FTUS45 KPIH 261120
TAFPIH
TAF
KPIH 261120Z 2612/2712 21009KT P6SM SCT200
     FM262100 19011KT P6SM VCSH BKN040
     FM270000 19008KT P6SM -SHRA BKN030 OVC040=

USA.gov is the U.S. government's official web portal to all federal, state and local government web resources and services.